Accueil
METAR-TAF:

METAR-TAF

Aéroports :

Tokachi-Obihiro, Japon

latitude: 42-54N, longitude: 143-10E, altitude: 84 m

Observation

Le bulletin a été fait il y a 32 minutes, à 01:38 UTC
Vent 1 kt de direction variable
Température -3°C
Humidité 80%
Pression 1018 hPa
Visibilité: 5000 m
Quelques nuages à une hauteur de 1000 ft
Nuages épars à une hauteur de 3000 ft
faibles averses de neige

METAR: RJCT 230138Z VRB01KT 5000 -SHSN FEW010 SCT030 M03/M06 Q1018 RMK 2ST010 4CU030 A3006

Heure: 11:10 (02:10 UTC)


TAF: absent

Observations et prévisions météorologiques de plus de 4000 aéroports (messages METAR et TAF).

Les stations disponibles sont représentées par des disques jaunes et rouges sur la carte.

Passer la souris dessus pour voir le nom de la station.

Cliquer dessus pour voir les observations et prévisions météorologiques.

Pour changer de carte: cliquez sur les boutons verts avec une croix noire pour zoomer, sur le bouton vert avec un tiret pour effectuer un zoom arrière, ou sur les flèches vertes pour les cartes adjacentes.


METAR-TAF: